createdAt,value
2017-03-30T00:00:59.941Z,0
2017-03-30T00:02:09.894Z,0
2017-03-30T00:03:20.173Z,0
2017-03-30T00:04:30.447Z,0
2017-03-30T00:05:40.736Z,0
2017-03-30T00:06:51.310Z,0
2017-03-30T00:08:01.582Z,0
2017-03-30T00:09:11.858Z,0
2017-03-30T00:10:22.138Z,0
2017-03-30T00:11:32.431Z,0
2017-03-30T00:12:42.644Z,0
2017-03-30T00:13:52.914Z,0
2017-03-30T00:15:03.176Z,0
2017-03-30T00:16:13.141Z,0
2017-03-30T00:17:23.105Z,0
2017-03-30T00:18:33.692Z,0
2017-03-30T00:19:43.955Z,0
2017-03-30T00:20:54.219Z,0
2017-03-30T00:22:04.499Z,0
2017-03-30T00:23:14.463Z,0
2017-03-30T00:24:24.991Z,0
2017-03-30T00:25:34.634Z,0
2017-03-30T00:26:44.910Z,0
2017-03-30T00:27:55.181Z,0
2017-03-30T00:29:05.142Z,0
2017-03-30T00:30:15.405Z,0
2017-03-30T00:31:25.675Z,0
2017-03-30T00:32:35.638Z,0
2017-03-30T00:33:45.910Z,0
2017-03-30T00:34:56.208Z,0
2017-03-30T00:36:06.771Z,0
2017-03-30T00:37:17.037Z,0
2017-03-30T00:38:27.302Z,0
2017-03-30T00:39:37.578Z,0
2017-03-30T00:40:47.859Z,0
2017-03-30T00:41:58.392Z,0
2017-03-30T00:43:08.355Z,0
2017-03-30T00:44:18.312Z,0
2017-03-30T00:45:28.600Z,0
2017-03-30T00:46:38.560Z,0
2017-03-30T00:47:48.784Z,0
2017-03-30T00:48:59.050Z,0
2017-03-30T00:50:09.325Z,0
2017-03-30T00:51:19.288Z,0
2017-03-30T00:52:29.565Z,0
2017-03-30T00:53:40.082Z,0
2017-03-30T00:54:50.365Z,0
2017-03-30T00:56:00.320Z,0
2017-03-30T00:57:10.586Z,0
2017-03-30T00:58:20.865Z,0
2017-03-30T00:59:31.385Z,0
2017-03-30T01:00:41.038Z,0
2017-03-30T01:01:51.017Z,0
2017-03-30T01:03:00.694Z,0
2017-03-30T01:04:10.962Z,0
2017-03-30T01:05:21.533Z,0
2017-03-30T01:06:31.821Z,0
2017-03-30T01:07:41.817Z,0
2017-03-30T01:08:51.799Z,0
2017-03-30T01:10:01.760Z,0
2017-03-30T01:11:12.278Z,0
2017-03-30T01:12:22.572Z,0
2017-03-30T01:13:32.843Z,0
2017-03-30T01:14:43.115Z,0
2017-03-30T01:15:53.399Z,0
2017-03-30T01:17:03.297Z,0
2017-03-30T01:18:13.576Z,0
2017-03-30T01:19:23.861Z,0
2017-03-30T01:20:34.137Z,0
2017-03-30T01:21:44.108Z,0
2017-03-30T01:22:54.674Z,0
2017-03-30T01:24:04.942Z,0
2017-03-30T01:25:15.224Z,0
2017-03-30T01:26:25.177Z,0
2017-03-30T01:27:35.133Z,0
2017-03-30T01:28:45.646Z,0
2017-03-30T01:29:55.598Z,0
2017-03-30T01:31:05.880Z,0
2017-03-30T01:32:16.157Z,0
2017-03-30T01:33:26.430Z,0
2017-03-30T01:34:36.388Z,0
2017-03-30T01:35:46.668Z,0
2017-03-30T01:36:56.953Z,0
2017-03-30T01:38:07.222Z,0
2017-03-30T01:39:17.176Z,0
2017-03-30T01:40:27.706Z,0
2017-03-30T01:41:38.006Z,0
2017-03-30T01:42:47.979Z,0
2017-03-30T01:43:58.257Z,0
2017-03-30T01:45:08.530Z,0
2017-03-30T01:46:19.047Z,0
2017-03-30T01:47:29.316Z,0
2017-03-30T01:48:39.273Z,0
2017-03-30T01:49:49.538Z,0
2017-03-30T01:50:59.818Z,0
2017-03-30T01:52:10.400Z,0
2017-03-30T01:53:20.684Z,0
2017-03-30T01:54:30.643Z,0
2017-03-30T01:55:40.914Z,0
2017-03-30T01:56:50.874Z,0
2017-03-30T01:58:00.840Z,0
2017-03-30T01:59:10.806Z,0
2017-03-30T02:00:21.071Z,0
2017-03-30T02:01:31.037Z,0
2017-03-30T02:02:40.993Z,0
2017-03-30T02:03:51.519Z,0
2017-03-30T02:05:01.476Z,0
2017-03-30T02:06:11.752Z,0
2017-03-30T02:07:22.022Z,0
2017-03-30T02:08:31.992Z,0
2017-03-30T02:09:41.892Z,0
2017-03-30T02:10:52.161Z,0
2017-03-30T02:12:02.430Z,0
2017-03-30T02:13:12.929Z,0
2017-03-30T02:14:23.200Z,0
2017-03-30T02:15:33.467Z,0
2017-03-30T02:16:43.744Z,0
2017-03-30T02:17:53.704Z,0
2017-03-30T02:19:03.982Z,0
2017-03-30T02:20:13.942Z,0
2017-03-30T02:21:24.458Z,0
2017-03-30T02:22:34.737Z,0
2017-03-30T02:23:45.113Z,0
2017-03-30T02:24:55.389Z,0
2017-03-30T02:26:05.670Z,0
2017-03-30T02:27:16.195Z,0
2017-03-30T02:28:26.463Z,0
2017-03-30T02:29:36.734Z,0
2017-03-30T02:30:46.387Z,0
2017-03-30T02:31:56.658Z,0
2017-03-30T02:33:07.176Z,0
2017-03-30T02:34:17.449Z,0
2017-03-30T02:35:27.725Z,0
2017-03-30T02:36:37.987Z,0
2017-03-30T02:37:48.260Z,0
2017-03-30T02:38:58.212Z,0
2017-03-30T02:40:08.518Z,0
2017-03-30T02:41:18.797Z,0
2017-03-30T02:42:28.765Z,0
2017-03-30T02:43:39.044Z,0
2017-03-30T02:44:49.572Z,0
2017-03-30T02:45:59.842Z,0
2017-03-30T02:47:10.119Z,0
2017-03-30T02:48:20.123Z,0
2017-03-30T02:49:30.391Z,0
2017-03-30T02:50:40.967Z,0
2017-03-30T02:51:50.933Z,0
2017-03-30T02:53:00.920Z,0
2017-03-30T02:54:11.207Z,0
2017-03-30T02:55:21.491Z,0
2017-03-30T02:56:31.748Z,0
2017-03-30T02:57:42.014Z,0
2017-03-30T02:58:51.978Z,0
2017-03-30T03:00:02.247Z,0
2017-03-30T03:01:12.517Z,0
2017-03-30T03:02:23.055Z,0
2017-03-30T03:03:33.329Z,0
2017-03-30T03:04:43.277Z,0
2017-03-30T03:05:53.244Z,0
2017-03-30T03:07:03.521Z,0
2017-03-30T03:08:14.109Z,0
2017-03-30T03:09:24.066Z,0
2017-03-30T03:10:34.346Z,0
2017-03-30T03:11:44.307Z,0
2017-03-30T03:12:54.267Z,0
2017-03-30T03:14:04.484Z,0
2017-03-30T03:15:14.754Z,0
2017-03-30T03:16:25.028Z,0
2017-03-30T03:17:35.294Z,0
2017-03-30T03:18:45.565Z,0
2017-03-30T03:19:56.109Z,0
2017-03-30T03:21:05.756Z,0
2017-03-30T03:22:16.026Z,0
2017-03-30T03:23:26.297Z,0
2017-03-30T03:24:36.569Z,0
2017-03-30T03:25:47.091Z,0
2017-03-30T03:26:57.369Z,0
2017-03-30T03:28:07.645Z,0
2017-03-30T03:29:17.917Z,0
2017-03-30T03:30:28.196Z,0
2017-03-30T03:31:38.404Z,0
2017-03-30T03:32:48.360Z,0
2017-03-30T03:33:58.632Z,0
2017-03-30T03:35:08.902Z,0
2017-03-30T03:36:18.861Z,0
2017-03-30T03:37:29.127Z,0
2017-03-30T03:38:39.410Z,0
2017-03-30T03:39:49.679Z,0
2017-03-30T03:40:59.950Z,0
2017-03-30T03:42:09.926Z,0
2017-03-30T03:43:19.832Z,0
2017-03-30T03:44:30.117Z,0
2017-03-30T03:45:40.384Z,0
2017-03-30T03:46:50.353Z,0
2017-03-30T03:48:00.313Z,0
2017-03-30T03:49:10.892Z,0
2017-03-30T03:50:20.858Z,0
2017-03-30T03:51:31.130Z,0
2017-03-30T03:52:41.410Z,0
2017-03-30T03:53:51.366Z,0
2017-03-30T03:55:01.895Z,0
2017-03-30T03:56:11.851Z,0
2017-03-30T03:57:22.133Z,0
2017-03-30T03:58:32.413Z,0
2017-03-30T03:59:42.396Z,0
2017-03-30T04:00:52.921Z,0
2017-03-30T04:02:02.888Z,0
2017-03-30T04:03:13.261Z,0
2017-03-30T04:04:23.213Z,0
2017-03-30T04:05:33.497Z,0
2017-03-30T04:06:44.018Z,0
2017-03-30T04:07:53.978Z,0
2017-03-30T04:09:03.936Z,0
2017-03-30T04:10:14.208Z,0
2017-03-30T04:11:24.509Z,0
2017-03-30T04:12:35.112Z,0
2017-03-30T04:13:45.392Z,0
2017-03-30T04:14:55.670Z,0
2017-03-30T04:16:05.942Z,0
2017-03-30T04:17:16.209Z,0
2017-03-30T04:18:26.416Z,0
2017-03-30T04:19:36.372Z,0
2017-03-30T04:20:46.646Z,0
2017-03-30T04:21:56.923Z,0
2017-03-30T04:23:07.210Z,0
2017-03-30T04:24:17.739Z,0
2017-03-30T04:25:28.021Z,0
2017-03-30T04:26:38.297Z,0
2017-03-30T04:27:48.560Z,0
2017-03-30T04:28:58.525Z,0
2017-03-30T04:30:09.051Z,4
2017-03-30T04:31:19.012Z,0
2017-03-30T04:32:28.662Z,4
2017-03-30T04:33:38.953Z,4
2017-03-30T04:34:49.233Z,4
2017-03-30T04:35:59.135Z,4
2017-03-30T04:37:09.415Z,4
2017-03-30T04:38:19.712Z,4
2017-03-30T04:39:29.982Z,4
2017-03-30T04:40:40.258Z,8
2017-03-30T04:41:50.836Z,4
2017-03-30T04:43:01.118Z,8
2017-03-30T04:44:11.393Z,8
2017-03-30T04:45:21.358Z,8
2017-03-30T04:46:31.638Z,12
2017-03-30T04:47:42.153Z,16
2017-03-30T04:48:52.433Z,16
2017-03-30T04:50:02.393Z,16
2017-03-30T04:51:12.666Z,20
2017-03-30T04:52:22.939Z,24
2017-03-30T04:53:33.237Z,24
2017-03-30T04:54:43.513Z,24
2017-03-30T04:55:53.467Z,32
2017-03-30T04:57:03.747Z,36
2017-03-30T04:58:13.709Z,36
2017-03-30T04:59:23.921Z,36
2017-03-30T05:00:33.883Z,32
2017-03-30T05:01:44.204Z,36
2017-03-30T05:02:54.470Z,40
2017-03-30T05:04:04.790Z,44
2017-03-30T05:05:15.616Z,48
2017-03-30T05:06:25.573Z,48
2017-03-30T05:07:35.855Z,52
2017-03-30T05:08:46.144Z,52
2017-03-30T05:09:56.136Z,52
2017-03-30T05:11:06.344Z,56
2017-03-30T05:12:16.618Z,60
2017-03-30T05:13:26.902Z,64
2017-03-30T05:14:36.557Z,64
2017-03-30T05:15:46.825Z,64
2017-03-30T05:16:57.031Z,68
2017-03-30T05:18:06.689Z,72
2017-03-30T05:19:16.959Z,80
2017-03-30T05:20:26.924Z,88
2017-03-30T05:21:37.201Z,92
2017-03-30T05:22:47.407Z,88
2017-03-30T05:23:57.362Z,96
2017-03-30T05:25:07.326Z,108
2017-03-30T05:26:17.593Z,116
2017-03-30T05:27:27.885Z,116
2017-03-30T05:28:38.416Z,120
2017-03-30T05:29:48.379Z,120
2017-03-30T05:30:58.650Z,120
2017-03-30T05:32:08.926Z,120
2017-03-30T05:33:19.209Z,132
2017-03-30T05:34:29.734Z,136
2017-03-30T05:35:40.013Z,148
2017-03-30T05:36:50.291Z,148
2017-03-30T05:38:00.268Z,140
2017-03-30T05:39:10.555Z,148
2017-03-30T05:40:21.144Z,152
2017-03-30T05:41:31.417Z,164
2017-03-30T05:42:41.696Z,176
2017-03-30T05:43:51.966Z,184
2017-03-30T05:45:02.239Z,196
2017-03-30T05:46:12.789Z,200
2017-03-30T05:47:22.819Z,204
2017-03-30T05:48:32.472Z,208
2017-03-30T05:49:42.759Z,208
2017-03-30T05:50:52.746Z,212
2017-03-30T05:52:02.979Z,228
2017-03-30T05:53:13.487Z,244
2017-03-30T05:54:23.781Z,248
2017-03-30T05:55:34.060Z,260
2017-03-30T05:56:44.333Z,260
2017-03-30T05:57:54.552Z,252
2017-03-30T05:59:05.054Z,248
2017-03-30T06:00:15.034Z,248
2017-03-30T06:01:25.310Z,236
2017-03-30T06:02:35.588Z,232
2017-03-30T06:03:46.163Z,244
2017-03-30T06:04:56.462Z,244
2017-03-30T06:06:06.421Z,248
2017-03-30T06:07:16.714Z,244
2017-03-30T06:08:27.018Z,240
2017-03-30T06:09:37.563Z,248
2017-03-30T06:10:47.891Z,264
2017-03-30T06:11:58.173Z,292
2017-03-30T06:13:08.488Z,320
2017-03-30T06:14:18.767Z,360
2017-03-30T06:15:28.999Z,376
2017-03-30T06:16:39.277Z,380
2017-03-30T06:17:49.573Z,364
2017-03-30T06:18:59.858Z,348
2017-03-30T06:20:10.170Z,364
2017-03-30T06:21:20.691Z,396
2017-03-30T06:22:30.996Z,404
2017-03-30T06:23:41.275Z,396
2017-03-30T06:24:51.588Z,408
2017-03-30T06:26:01.878Z,424
2017-03-30T06:27:12.479Z,472
2017-03-30T06:28:22.440Z,580
2017-03-30T06:29:32.724Z,656
2017-03-30T06:30:43.004Z,712
2017-03-30T06:31:53.897Z,744
2017-03-30T06:33:04.422Z,640
2017-03-30T06:34:14.403Z,648
2017-03-30T06:35:24.682Z,608
2017-03-30T06:36:35.013Z,636
2017-03-30T06:37:45.304Z,596
2017-03-30T06:38:55.573Z,628
2017-03-30T06:40:05.864Z,580
2017-03-30T06:41:15.877Z,544
2017-03-30T06:42:26.175Z,480
2017-03-30T06:43:36.464Z,420
2017-03-30T06:44:47.000Z,420
2017-03-30T06:45:57.294Z,424
2017-03-30T06:47:07.267Z,416
2017-03-30T06:48:17.553Z,372
2017-03-30T06:49:27.527Z,348
2017-03-30T06:50:37.787Z,328
2017-03-30T06:51:48.069Z,344
2017-03-30T06:52:58.369Z,356
2017-03-30T06:54:08.695Z,344
2017-03-30T06:55:18.991Z,336
2017-03-30T06:56:29.271Z,360
2017-03-30T06:57:39.251Z,368
2017-03-30T06:58:49.527Z,392
2017-03-30T06:59:59.525Z,400
2017-03-30T07:01:09.808Z,428
2017-03-30T07:02:20.355Z,412
2017-03-30T07:03:30.517Z,456
2017-03-30T07:04:40.806Z,548
2017-03-30T07:05:51.108Z,624
2017-03-30T07:07:01.393Z,676
2017-03-30T07:08:11.924Z,684
2017-03-30T07:09:22.228Z,624
2017-03-30T07:10:32.205Z,644
2017-03-30T07:11:42.228Z,680
2017-03-30T07:12:52.634Z,700
2017-03-30T07:14:03.170Z,792
2017-03-30T07:15:13.488Z,852
2017-03-30T07:16:23.783Z,1040
2017-03-30T07:17:34.069Z,1076
2017-03-30T07:18:44.036Z,1152
2017-03-30T07:19:54.481Z,1124
2017-03-30T07:21:04.498Z,984
2017-03-30T07:22:14.466Z,956
2017-03-30T07:23:24.761Z,932
2017-03-30T07:24:34.741Z,976
2017-03-30T07:25:45.027Z,984
2017-03-30T07:26:55.314Z,936
2017-03-30T07:28:05.667Z,1044
2017-03-30T07:29:15.952Z,1212
2017-03-30T07:30:26.257Z,1128
2017-03-30T07:31:36.798Z,1108
2017-03-30T07:32:47.078Z,1160
2017-03-30T07:33:57.039Z,1032
2017-03-30T07:35:07.349Z,1144
2017-03-30T07:36:17.321Z,1064
2017-03-30T07:37:27.551Z,1204
2017-03-30T07:38:37.868Z,1260
2017-03-30T07:39:47.840Z,1332
2017-03-30T07:40:57.818Z,1404
2017-03-30T07:42:08.120Z,1372
2017-03-30T07:43:18.644Z,1444
2017-03-30T07:44:28.928Z,1400
2017-03-30T07:45:38.890Z,1296
2017-03-30T07:46:49.208Z,1440
2017-03-30T07:47:59.501Z,1472
2017-03-30T07:49:09.429Z,1488
2017-03-30T07:50:19.727Z,1552
2017-03-30T07:51:30.021Z,1600
2017-03-30T07:52:42.027Z,1504
2017-03-30T07:53:52.966Z,1396
2017-03-30T07:55:03.239Z,1436
2017-03-30T07:56:13.599Z,1540
2017-03-30T07:57:24.471Z,1644
2017-03-30T07:58:34.763Z,1632
2017-03-30T07:59:44.766Z,1568
2017-03-30T08:00:55.307Z,1516
2017-03-30T08:02:05.314Z,1252
2017-03-30T08:03:15.617Z,1356
2017-03-30T08:04:25.902Z,1420
2017-03-30T08:05:36.188Z,1616
2017-03-30T08:06:46.739Z,1832
2017-03-30T08:07:56.710Z,1976
2017-03-30T08:09:06.368Z,2056
2017-03-30T08:10:16.343Z,2132
2017-03-30T08:11:26.331Z,2120
2017-03-30T08:12:36.860Z,2232
2017-03-30T08:13:46.844Z,2200
2017-03-30T08:14:57.153Z,1972
2017-03-30T08:16:07.495Z,1916
2017-03-30T08:17:17.471Z,1716
2017-03-30T08:18:28.012Z,1672
2017-03-30T08:19:37.982Z,1656
2017-03-30T08:20:48.269Z,1680
2017-03-30T08:21:58.563Z,1704
2017-03-30T08:23:08.882Z,1808
2017-03-30T08:24:19.116Z,1788
2017-03-30T08:25:29.431Z,1640
2017-03-30T08:26:39.738Z,1768
2017-03-30T08:27:49.742Z,2020
2017-03-30T08:28:59.740Z,1988
2017-03-30T08:30:10.276Z,1868
2017-03-30T08:31:20.251Z,1864
2017-03-30T08:32:30.554Z,1992
2017-03-30T08:33:40.841Z,2220
2017-03-30T08:34:50.517Z,2168
2017-03-30T08:36:01.069Z,1920
2017-03-30T08:37:11.071Z,1896
2017-03-30T08:38:21.363Z,2284
2017-03-30T08:39:31.649Z,2196
2017-03-30T08:40:41.329Z,1952
2017-03-30T08:41:51.891Z,1784
2017-03-30T08:43:01.859Z,1644
2017-03-30T08:44:12.145Z,1564
2017-03-30T08:45:22.445Z,1540
2017-03-30T08:46:32.530Z,1468
2017-03-30T08:47:42.449Z,1404
2017-03-30T08:48:52.463Z,1380
2017-03-30T08:50:02.758Z,1372
2017-03-30T08:51:13.047Z,1384
2017-03-30T08:52:23.026Z,1300
2017-03-30T08:53:33.353Z,1332
2017-03-30T08:54:43.677Z,1336
2017-03-30T08:55:53.965Z,1208
2017-03-30T08:57:04.256Z,1104
2017-03-30T08:58:14.568Z,1120
2017-03-30T08:59:25.130Z,1120
2017-03-30T09:00:35.402Z,1040
2017-03-30T09:01:45.691Z,964
2017-03-30T09:02:55.659Z,892
2017-03-30T09:04:05.956Z,884
2017-03-30T09:05:16.792Z,856
2017-03-30T09:06:27.099Z,824
2017-03-30T09:07:37.101Z,848
2017-03-30T09:08:47.599Z,916
2017-03-30T09:09:57.918Z,964
2017-03-30T09:11:08.473Z,1048
2017-03-30T09:12:18.448Z,1104
2017-03-30T09:13:28.767Z,1084
2017-03-30T09:14:39.074Z,1144
2017-03-30T09:15:49.394Z,1240
2017-03-30T09:16:59.939Z,1376
2017-03-30T09:18:10.226Z,1436
2017-03-30T09:19:20.522Z,1332
2017-03-30T09:20:30.824Z,1248
2017-03-30T09:21:41.124Z,1172
2017-03-30T09:22:51.661Z,1080
2017-03-30T09:24:01.956Z,1016
2017-03-30T09:25:12.237Z,1032
2017-03-30T09:26:22.217Z,1108
2017-03-30T09:27:32.202Z,1180
2017-03-30T09:28:42.480Z,1216
2017-03-30T09:29:52.774Z,1308
2017-03-30T09:31:03.092Z,1404
2017-03-30T09:32:13.374Z,1568
2017-03-30T09:33:23.651Z,1844
2017-03-30T09:34:33.901Z,2012
2017-03-30T09:35:44.204Z,2064
2017-03-30T09:36:54.499Z,2036
2017-03-30T09:38:04.789Z,2084
2017-03-30T09:39:15.105Z,2100
2017-03-30T09:40:25.323Z,2076
2017-03-30T09:41:35.618Z,2000
2017-03-30T09:42:45.926Z,2068
2017-03-30T09:43:56.202Z,2296
2017-03-30T09:45:06.509Z,2476
2017-03-30T09:46:16.732Z,2308
2017-03-30T09:47:26.715Z,2184
2017-03-30T09:48:36.987Z,2300
2017-03-30T09:49:47.289Z,2388
2017-03-30T09:50:57.592Z,2448
2017-03-30T09:52:08.208Z,2384
2017-03-30T09:53:18.516Z,2212
2017-03-30T09:54:28.527Z,2488
2017-03-30T09:55:38.805Z,2488
2017-03-30T09:56:48.804Z,3036
2017-03-30T09:57:59.373Z,3424
2017-03-30T09:59:09.368Z,3848
2017-03-30T10:00:19.670Z,3876
2017-03-30T10:01:29.655Z,3620
2017-03-30T10:02:39.967Z,3352
2017-03-30T10:03:50.495Z,3616
2017-03-30T10:05:00.190Z,3852
2017-03-30T10:06:10.167Z,3860
2017-03-30T10:07:20.400Z,3748
2017-03-30T10:08:30.766Z,3736
2017-03-30T10:09:41.292Z,3684
2017-03-30T10:10:51.579Z,3844
2017-03-30T10:12:01.894Z,3780
2017-03-30T10:13:11.858Z,3392
2017-03-30T10:14:22.139Z,3136
2017-03-30T10:15:32.759Z,3400
2017-03-30T10:16:42.757Z,3392
2017-03-30T10:17:53.029Z,3412
2017-03-30T10:19:03.003Z,3712
2017-03-30T10:20:12.975Z,3724
2017-03-30T10:21:23.200Z,3780
2017-03-30T10:22:33.483Z,3864
2017-03-30T10:23:43.832Z,3696
2017-03-30T10:24:54.128Z,3900
2017-03-30T10:26:04.420Z,4084
2017-03-30T10:27:14.702Z,4016
2017-03-30T10:28:25.013Z,4188
2017-03-30T10:29:34.982Z,3932
2017-03-30T10:30:44.956Z,3692
2017-03-30T10:31:55.267Z,3508
2017-03-30T10:33:05.851Z,3256
2017-03-30T10:34:16.136Z,3260
2017-03-30T10:35:26.413Z,3520
2017-03-30T10:36:36.706Z,3420
2017-03-30T10:37:47.003Z,3420
2017-03-30T10:38:57.578Z,3520
2017-03-30T10:40:07.894Z,3772
2017-03-30T10:41:17.257Z,3936
2017-03-30T10:42:27.240Z,4036
2017-03-30T10:43:37.212Z,4072
2017-03-30T10:44:47.742Z,4108
2017-03-30T10:45:58.022Z,4004
2017-03-30T10:47:08.312Z,3964
2017-03-30T10:48:18.591Z,4096
2017-03-30T10:49:28.893Z,4196
2017-03-30T10:50:39.142Z,4024
2017-03-30T10:51:49.432Z,3852
2017-03-30T10:52:59.400Z,3800
2017-03-30T10:54:09.694Z,3496
2017-03-30T10:55:19.690Z,3356
2017-03-30T10:56:30.282Z,3504
2017-03-30T10:57:40.569Z,3924
2017-03-30T10:58:50.857Z,4068
2017-03-30T11:00:00.841Z,4032
2017-03-30T11:01:10.829Z,4056
2017-03-30T11:02:21.626Z,3944
2017-03-30T11:03:31.318Z,3912
2017-03-30T11:04:41.327Z,3736
2017-03-30T11:05:51.609Z,3320
2017-03-30T11:07:01.902Z,3552
2017-03-30T11:08:12.446Z,4400
2017-03-30T11:09:22.448Z,4212
2017-03-30T11:10:32.110Z,3936
2017-03-30T11:11:42.400Z,3512
2017-03-30T11:12:52.690Z,3108
2017-03-30T11:14:03.288Z,4036
2017-03-30T11:15:13.574Z,4168
2017-03-30T11:16:23.873Z,3980
2017-03-30T11:17:33.869Z,3480
2017-03-30T11:18:44.167Z,2736
2017-03-30T11:19:54.686Z,2340
2017-03-30T11:21:04.683Z,1812
2017-03-30T11:22:14.983Z,1572
2017-03-30T11:23:25.036Z,1856
2017-03-30T11:24:35.319Z,1868
2017-03-30T11:25:45.551Z,1728
2017-03-30T11:26:55.895Z,1768
2017-03-30T11:28:06.207Z,1848
2017-03-30T11:29:16.183Z,2004
2017-03-30T11:30:25.859Z,2260
2017-03-30T11:31:36.130Z,2420
2017-03-30T11:32:46.415Z,1748
2017-03-30T11:33:56.703Z,1832
2017-03-30T11:35:07.045Z,1780
2017-03-30T11:36:17.362Z,1920
2017-03-30T11:37:27.928Z,2216
2017-03-30T11:38:37.595Z,2612
2017-03-30T11:39:47.283Z,2356
2017-03-30T11:40:57.787Z,2564
2017-03-30T11:42:08.092Z,2740
2017-03-30T11:43:18.659Z,2800
2017-03-30T11:44:28.948Z,2892
2017-03-30T11:45:38.933Z,2952
2017-03-30T11:46:48.920Z,3028
2017-03-30T11:47:58.827Z,2972
2017-03-30T11:49:09.391Z,3056
2017-03-30T11:50:19.717Z,3160
2017-03-30T11:51:29.398Z,3284
2017-03-30T11:52:39.706Z,3464
2017-03-30T11:53:50.035Z,3936
2017-03-30T11:54:59.943Z,4000
2017-03-30T11:56:10.243Z,3616
2017-03-30T11:57:20.529Z,3624
2017-03-30T11:58:30.823Z,3780
2017-03-30T11:59:40.809Z,3888
2017-03-30T12:00:51.043Z,3972
2017-03-30T12:02:00.720Z,3888
2017-03-30T12:03:10.131Z,3616
2017-03-30T12:04:20.424Z,2892
2017-03-30T12:05:30.715Z,3136
2017-03-30T12:06:40.997Z,3020
2017-03-30T12:07:50.963Z,2548
2017-03-30T12:09:01.256Z,2716
2017-03-30T12:10:11.556Z,2716
2017-03-30T12:11:21.537Z,2692
2017-03-30T12:12:32.088Z,2488
2017-03-30T12:13:42.383Z,2320
2017-03-30T12:14:52.688Z,2048
2017-03-30T12:16:02.984Z,1720
2017-03-30T12:17:13.273Z,1652
2017-03-30T12:18:23.827Z,1632
2017-03-30T12:19:33.823Z,2360
2017-03-30T12:20:44.122Z,2420
2017-03-30T12:21:54.436Z,2440
2017-03-30T12:23:04.411Z,2660
2017-03-30T12:24:14.694Z,2368
2017-03-30T12:25:24.671Z,1648
2017-03-30T12:26:34.653Z,1872
2017-03-30T12:27:44.634Z,2232
2017-03-30T12:28:54.326Z,2388
2017-03-30T12:30:04.870Z,2408
2017-03-30T12:31:15.157Z,2248
2017-03-30T12:32:25.444Z,2048
2017-03-30T12:33:35.744Z,2304
2017-03-30T12:34:46.024Z,3196
2017-03-30T12:35:56.256Z,3124
2017-03-30T12:37:06.542Z,3168
2017-03-30T12:38:16.820Z,3400
2017-03-30T12:39:26.824Z,3592
2017-03-30T12:40:36.820Z,3600
2017-03-30T12:41:47.116Z,3568
2017-03-30T12:42:57.411Z,3688
2017-03-30T12:44:07.711Z,3948
2017-03-30T12:45:17.703Z,3976
2017-03-30T12:46:27.991Z,3896
2017-03-30T12:47:38.551Z,3716
2017-03-30T12:48:48.843Z,3452
2017-03-30T12:49:59.130Z,3104
2017-03-30T12:51:08.808Z,2736
2017-03-30T12:52:19.093Z,2468
2017-03-30T12:53:29.646Z,2284
2017-03-30T12:54:39.938Z,2192
2017-03-30T12:55:50.221Z,2132
2017-03-30T12:57:00.508Z,2068
2017-03-30T12:58:10.783Z,1936
2017-03-30T12:59:21.312Z,1800
2017-03-30T13:00:31.598Z,1748
2017-03-30T13:01:41.912Z,1632
2017-03-30T13:02:51.876Z,1604
2017-03-30T13:04:02.161Z,1592
2017-03-30T13:05:12.706Z,1600
2017-03-30T13:06:23.008Z,1640
2017-03-30T13:07:32.986Z,1812
2017-03-30T13:08:43.286Z,1748
2017-03-30T13:09:53.311Z,2004
2017-03-30T13:11:03.538Z,2756
2017-03-30T13:12:13.568Z,2028
2017-03-30T13:13:23.860Z,1932
2017-03-30T13:14:34.151Z,2280
2017-03-30T13:15:44.453Z,2552
2017-03-30T13:16:54.989Z,2228
2017-03-30T13:18:05.280Z,2064
2017-03-30T13:19:15.580Z,2248
2017-03-30T13:20:25.874Z,2100
2017-03-30T13:21:35.863Z,2068
2017-03-30T13:22:46.416Z,2224
2017-03-30T13:23:56.697Z,2340
2017-03-30T13:25:06.687Z,2284
2017-03-30T13:26:16.973Z,1924
2017-03-30T13:27:26.964Z,2068
2017-03-30T13:28:37.499Z,2260
2017-03-30T13:29:47.793Z,2528
2017-03-30T13:30:58.101Z,2568
2017-03-30T13:32:08.067Z,2892
2017-03-30T13:33:18.063Z,3092
2017-03-30T13:34:28.644Z,3048
2017-03-30T13:35:38.932Z,2688
2017-03-30T13:36:48.905Z,2736
2017-03-30T13:37:59.201Z,2216
2017-03-30T13:39:09.483Z,1720
2017-03-30T13:40:20.027Z,1488
2017-03-30T13:41:30.014Z,1416
2017-03-30T13:42:40.286Z,1456
2017-03-30T13:43:50.600Z,1744
2017-03-30T13:45:00.914Z,1516
2017-03-30T13:46:11.448Z,1372
2017-03-30T13:47:21.742Z,1332
2017-03-30T13:48:31.706Z,1300
2017-03-30T13:49:41.694Z,1300
2017-03-30T13:50:51.970Z,1324
2017-03-30T13:52:02.204Z,1332
2017-03-30T13:53:12.182Z,1328
2017-03-30T13:54:22.164Z,1320
2017-03-30T13:55:32.588Z,1416
2017-03-30T13:56:42.593Z,1572
2017-03-30T13:57:53.126Z,1452
2017-03-30T13:59:03.337Z,1436
2017-03-30T14:00:13.003Z,1552
2017-03-30T14:01:23.284Z,1676
2017-03-30T14:02:33.250Z,1592
2017-03-30T14:03:43.831Z,1536
2017-03-30T14:04:54.115Z,1460
2017-03-30T14:06:04.409Z,1496
2017-03-30T14:07:14.385Z,1508
2017-03-30T14:08:24.671Z,1480
2017-03-30T14:09:34.894Z,1472
2017-03-30T14:10:44.862Z,1432
2017-03-30T14:11:55.161Z,1508
2017-03-30T14:13:05.495Z,1592
2017-03-30T14:14:15.801Z,1604
2017-03-30T14:15:26.350Z,1624
2017-03-30T14:16:36.317Z,1572
2017-03-30T14:17:46.619Z,1604
2017-03-30T14:18:56.900Z,1628
2017-03-30T14:20:06.878Z,1920
2017-03-30T14:21:17.431Z,2100
2017-03-30T14:22:27.411Z,1864
2017-03-30T14:23:37.401Z,1664
2017-03-30T14:24:47.975Z,1600
2017-03-30T14:25:58.271Z,1600
2017-03-30T14:27:08.186Z,1636
2017-03-30T14:28:18.475Z,1612
2017-03-30T14:29:28.762Z,1596
2017-03-30T14:30:39.062Z,1692
2017-03-30T14:31:49.354Z,1760
2017-03-30T14:32:59.634Z,2048
2017-03-30T14:34:09.638Z,2028
2017-03-30T14:35:19.928Z,1784
2017-03-30T14:36:30.218Z,1652
2017-03-30T14:37:39.888Z,1604
2017-03-30T14:38:50.478Z,1588
2017-03-30T14:40:00.495Z,1548
2017-03-30T14:41:10.799Z,1504
2017-03-30T14:42:21.098Z,1496
2017-03-30T14:43:31.403Z,1480
2017-03-30T14:44:41.933Z,1464
2017-03-30T14:45:51.914Z,1448
2017-03-30T14:47:02.202Z,1440
2017-03-30T14:48:12.481Z,1460
2017-03-30T14:49:22.447Z,1536
2017-03-30T14:50:32.399Z,1496
2017-03-30T14:51:42.377Z,1472
2017-03-30T14:52:52.675Z,1708
2017-03-30T14:54:02.962Z,1508
2017-03-30T14:55:12.332Z,1432
2017-03-30T14:56:22.877Z,1428
2017-03-30T14:57:33.176Z,1416
2017-03-30T14:58:43.469Z,1396
2017-03-30T14:59:53.748Z,1372
2017-03-30T15:01:04.046Z,1360
2017-03-30T15:02:14.274Z,1388
2017-03-30T15:03:24.566Z,1436
2017-03-30T15:04:34.851Z,1668
2017-03-30T15:05:45.124Z,1836
2017-03-30T15:06:55.085Z,1644
2017-03-30T15:08:05.366Z,1620
2017-03-30T15:09:15.349Z,1672
2017-03-30T15:10:25.321Z,1684
2017-03-30T15:11:35.619Z,1672
2017-03-30T15:12:45.907Z,1712
2017-03-30T15:13:56.502Z,1752
2017-03-30T15:15:06.783Z,1796
2017-03-30T15:16:16.774Z,1840
2017-03-30T15:17:27.066Z,1828
2017-03-30T15:18:37.329Z,1808
2017-03-30T15:19:47.246Z,1836
2017-03-30T15:20:57.524Z,1796
2017-03-30T15:22:07.508Z,1756
2017-03-30T15:23:17.815Z,1732
2017-03-30T15:24:27.788Z,1732
2017-03-30T15:25:38.319Z,1696
2017-03-30T15:26:48.604Z,1668
2017-03-30T15:27:58.898Z,1640
2017-03-30T15:29:08.882Z,1592
2017-03-30T15:30:19.171Z,1524
2017-03-30T15:31:29.706Z,1472
2017-03-30T15:32:40.027Z,1492
2017-03-30T15:33:50.015Z,1452
2017-03-30T15:35:00.008Z,1440
2017-03-30T15:36:09.991Z,1432
2017-03-30T15:37:20.584Z,1440
2017-03-30T15:38:30.259Z,1456
2017-03-30T15:39:40.552Z,1424
2017-03-30T15:40:50.835Z,1380
2017-03-30T15:42:01.141Z,1340
2017-03-30T15:43:11.722Z,1300
2017-03-30T15:44:22.018Z,1248
2017-03-30T15:45:32.025Z,1208
2017-03-30T15:46:42.323Z,1200
2017-03-30T15:47:52.296Z,1208
2017-03-30T15:49:02.889Z,1224
2017-03-30T15:50:13.178Z,1248
2017-03-30T15:51:23.468Z,1272
2017-03-30T15:52:33.998Z,1300
2017-03-30T15:53:43.984Z,1308
2017-03-30T15:54:54.574Z,1296
2017-03-30T15:56:04.544Z,1272
2017-03-30T15:57:14.829Z,1284
2017-03-30T15:58:24.799Z,1304
2017-03-30T15:59:35.081Z,1364
2017-03-30T16:00:45.366Z,1436
2017-03-30T16:01:55.670Z,1448
2017-03-30T16:03:05.321Z,1368
2017-03-30T16:04:15.611Z,1244
2017-03-30T16:05:25.593Z,1112
2017-03-30T16:06:36.145Z,1036
2017-03-30T16:07:46.142Z,1032
2017-03-30T16:08:56.441Z,1060
2017-03-30T16:10:06.408Z,996